Time;durP1;ratioP1;P1;durP2;ratioP2;P2;SDS_P1;SDS_P2;PMS_P1;PMS_P2;Temp;Humidity;BMP_temperature;BMP_pressure;BME280_temperature;BME280_humidity;BME280_pressure;Samples;Min_cycle;Max_cycle;Signal;HPM_P1;HPM_P2
2022/05/05 00:01:32;;;;;;;4.15;1.23;;;5.00;74.70;;;;;;4993131;28;20026;-79
2022/05/05 00:03:59;;;;;;;5.45;0.90;;;5.00;75.00;;;;;;4993161;28;20628;-86
2022/05/05 00:06:25;;;;;;;5.35;1.00;;;5.00;74.70;;;;;;4993103;28;20030;-85
2022/05/05 00:08:51;;;;;;;2.22;1.13;;;5.10;74.10;;;;;;4993028;28;20019;-83
2022/05/05 00:14:43;;;;;;;5.60;1.30;;;5.10;74.40;;;;;;4993198;28;20397;-84
2022/05/05 00:17:04;;;;;;;6.78;1.45;;;5.20;74.50;;;;;;4984511;28;20520;-84
2022/05/05 00:19:32;;;;;;;2.83;1.27;;;5.20;74.70;;;;;;4993049;28;20402;-82
2022/05/05 00:21:58;;;;;;;6.30;1.75;;;5.20;74.90;;;;;;4992900;28;20485;-82
2022/05/05 00:24:25;;;;;;;4.43;1.50;;;5.20;75.00;;;;;;4992506;28;20054;-82
2022/05/05 00:26:51;;;;;;;4.32;1.15;;;5.20;75.50;;;;;;4992800;28;20121;-82
2022/05/05 00:29:19;;;;;;;6.30;1.55;;;5.20;75.50;;;;;;4992393;28;20026;-82
2022/05/05 00:31:45;;;;;;;5.00;1.27;;;5.10;75.60;;;;;;4992752;28;20037;-83
2022/05/05 00:34:11;;;;;;;1.65;1.08;;;5.10;75.50;;;;;;4992681;28;20377;-83
2022/05/05 00:36:37;;;;;;;2.28;0.98;;;5.10;75.70;;;;;;4992188;28;20117;-83
2022/05/05 00:39:04;;;;;;;4.22;1.10;;;5.10;75.40;;;;;;4976607;28;20058;-79
2022/05/05 00:41:37;;;;;;;6.05;1.42;;;5.10;75.20;;;;;;4973296;28;20050;-81
2022/05/05 00:44:04;;;;;;;8.30;1.60;;;5.10;75.10;;;;;;4973070;28;20498;-81
2022/05/05 00:46:30;;;;;;;4.97;1.70;;;5.10;75.30;;;;;;4973223;28;20204;-82
2022/05/05 00:48:56;;;;;;;2.65;1.60;;;5.00;75.30;;;;;;4973084;28;20026;-83
2022/05/05 00:51:22;;;;;;;6.53;1.98;;;5.00;75.00;;;;;;4973312;28;20043;-81
2022/05/05 00:53:48;;;;;;;9.07;1.50;;;4.90;74.90;;;;;;4973038;28;20502;-80
2022/05/05 00:56:16;;;;;;;3.13;1.27;;;4.90;75.00;;;;;;4973105;28;20398;-81
2022/05/05 00:58:44;;;;;;;3.85;1.58;;;4.90;74.80;;;;;;4972939;28;20098;-81
2022/05/05 01:01:11;;;;;;;5.57;1.50;;;4.90;74.60;;;;;;4972895;28;20058;-81
2022/05/05 01:03:38;;;;;;;4.75;1.50;;;5.00;74.60;;;;;;4973110;28;20027;-81
2022/05/05 01:06:05;;;;;;;3.53;1.33;;;5.00;74.50;;;;;;4972930;28;20030;-85
2022/05/05 01:08:33;;;;;;;4.15;1.50;;;4.90;74.50;;;;;;4972697;28;20590;-81
2022/05/05 01:10:59;;;;;;;3.88;1.40;;;5.00;74.60;;;;;;4973075;28;20046;-80
2022/05/05 01:13:27;;;;;;;1.30;0.90;;;5.00;74.50;;;;;;4972900;28;20215;-80
2022/05/05 01:15:54;;;;;;;2.05;0.80;;;5.00;74.50;;;;;;4972907;28;20050;-80
2022/05/05 01:18:20;;;;;;;2.50;0.80;;;4.90;74.50;;;;;;4972519;28;20031;-80
2022/05/05 01:20:52;;;;;;;2.90;0.98;;;4.90;74.70;;;;;;4972752;28;20026;-80
2022/05/05 01:23:18;;;;;;;3.75;1.42;;;4.80;75.00;;;;;;4972818;28;20419;-80
2022/05/05 01:28:31;;;;;;;1.48;0.80;;;4.80;74.90;;;;;;4972586;28;20171;-80
2022/05/05 01:30:57;;;;;;;2.25;0.80;;;4.80;74.80;;;;;;4983177;28;20033;-81
2022/05/05 01:33:27;;;;;;;3.65;1.13;;;4.80;75.00;;;;;;4972585;28;20058;-80
2022/05/05 01:35:56;;;;;;;1.50;0.70;;;4.80;74.80;;;;;;4972847;28;20022;-81
2022/05/05 01:38:43;;;;;;;2.38;1.00;;;4.80;74.90;;;;;;4972381;28;20105;-81
2022/05/05 01:41:13;;;;;;;2.63;0.77;;;4.80;74.90;;;;;;4972956;28;20034;-81
2022/05/05 01:43:39;;;;;;;;;;;4.80;74.80;;;;;;4975463;28;20023;-83
2022/05/05 01:46:06;;;;;;;1.52;0.75;;;4.90;75.00;;;;;;4976011;28;19906;-83
2022/05/05 01:48:32;;;;;;;3.40;0.85;;;4.80;74.70;;;;;;4975735;28;20027;-83
2022/05/05 01:50:59;;;;;;;3.78;0.77;;;4.80;74.90;;;;;;4975960;28;20482;-84
2022/05/05 01:53:25;;;;;;;2.05;0.88;;;4.90;74.60;;;;;;4975696;28;20034;-85
2022/05/05 01:55:51;;;;;;;2.88;0.70;;;4.90;74.40;;;;;;4976179;28;20022;-85
2022/05/05 01:58:17;;;;;;;2.63;0.77;;;4.90;74.30;;;;;;4976038;28;20383;-85
2022/05/05 02:00:43;;;;;;;1.55;0.88;;;4.90;74.50;;;;;;4975896;28;20031;-86
2022/05/05 02:03:14;;;;;;;2.90;0.63;;;4.80;74.40;;;;;;4975874;28;20030;-85
2022/05/05 02:05:44;;;;;;;1.40;0.50;;;4.80;74.50;;;;;;4975944;28;20018;-88
2022/05/05 02:08:11;;;;;;;13.07;1.10;;;4.90;74.30;;;;;;4975671;28;20027;-74
2022/05/05 02:10:37;;;;;;;4.90;0.88;;;4.90;74.20;;;;;;4975601;28;20074;-77
2022/05/05 02:13:06;;;;;;;4.25;0.90;;;4.90;74.30;;;;;;4975578;28;20045;-80
2022/05/05 02:15:32;;;;;;;3.92;0.90;;;4.90;74.40;;;;;;4975547;28;20548;-77
2022/05/05 02:18:07;;;;;;;4.38;1.33;;;4.80;74.40;;;;;;4975887;28;20039;-79
2022/05/05 02:20:33;;;;;;;2.20;0.75;;;4.80;74.40;;;;;;4975547;28;20038;-78
2022/05/05 02:22:59;;;;;;;1.67;0.75;;;4.80;74.50;;;;;;4975456;28;20027;-77
2022/05/05 02:57:13;;;;;;;2.05;0.80;;;4.80;77.50;;;;;;4975546;28;20103;-79
2022/05/05 02:59:39;;;;;;;6.68;1.20;;;4.80;77.90;;;;;;4974731;28;20027;-79
2022/05/05 03:02:04;;;;;;;6.50;0.90;;;4.80;78.10;;;;;;4974535;28;20033;-79
2022/05/05 03:38:10;;;;;;;2.20;0.82;;;5.00;82.10;;;;;;5259946;23;19922;-66
2022/05/05 03:40:36;;;;;;;5.70;1.00;;;5.10;82.10;;;;;;4973774;28;20041;-67
2022/05/05 03:43:01;;;;;;;6.47;1.17;;;5.20;82.80;;;;;;4974039;28;20434;-67
2022/05/05 03:45:27;;;;;;;1.58;0.70;;;5.20;82.70;;;;;;4973954;28;20394;-68
2022/05/05 03:47:53;;;;;;;4.65;0.70;;;5.20;82.80;;;;;;4974125;28;20102;-68
2022/05/05 03:50:18;;;;;;;6.32;1.00;;;5.30;83.30;;;;;;4973768;28;20512;-68
2022/05/05 03:52:44;;;;;;;11.50;1.08;;;5.30;83.30;;;;;;4973654;28;20027;-67
2022/05/05 03:55:10;;;;;;;3.60;0.80;;;5.40;83.50;;;;;;4973682;28;20030;-67
2022/05/05 03:57:36;;;;;;;1.85;0.80;;;5.40;84.10;;;;;;4973770;28;20039;-67
2022/05/05 04:00:03;;;;;;;6.57;1.10;;;5.30;84.70;;;;;;4973515;28;20475;-67
2022/05/05 04:02:30;;;;;;;12.23;1.40;;;5.40;85.20;;;;;;4973504;28;20598;-67
2022/05/05 04:04:55;;;;;;;5.07;1.10;;;5.50;85.50;;;;;;4973266;28;20474;-67
2022/05/05 04:07:21;;;;;;;6.65;1.30;;;5.60;85.70;;;;;;4973306;28;20030;-67
2022/05/05 04:09:48;;;;;;;6.78;1.00;;;5.60;85.80;;;;;;4973467;28;20031;-68
2022/05/05 04:12:13;;;;;;;9.13;1.10;;;5.70;85.80;;;;;;4973236;28;20022;-68
2022/05/05 04:14:39;;;;;;;7.63;0.82;;;5.90;86.10;;;;;;4973471;28;20528;-68
2022/05/05 04:17:05;;;;;;;6.57;0.90;;;6.00;87.20;;;;;;4973369;28;20085;-67
2022/05/05 04:19:31;;;;;;;12.25;1.15;;;6.20;86.30;;;;;;4973237;28;20050;-67
2022/05/05 04:21:56;;;;;;;10.40;1.05;;;6.40;85.80;;;;;;4973088;28;20031;-68
2022/05/05 04:24:22;;;;;;;2.65;0.70;;;6.50;85.40;;;;;;4973160;28;20117;-68
2022/05/05 04:26:49;;;;;;;17.75;1.33;;;6.40;85.70;;;;;;4972939;28;20125;-68
2022/05/05 04:29:16;;;;;;;7.35;1.17;;;6.40;85.60;;;;;;4973083;28;20105;-66
2022/05/05 04:31:42;;;;;;;3.08;1.05;;;6.40;86.90;;;;;;4973080;28;20109;-66
2022/05/05 04:34:08;;;;;;;12.60;1.80;;;6.30;87.00;;;;;;4973097;28;20023;-73
2022/05/05 04:36:36;;;;;;;10.32;1.13;;;6.30;87.20;;;;;;4973760;28;20031;-67
2022/05/05 04:39:03;;;;;;;15.25;1.42;;;6.20;88.90;;;;;;4971151;28;20498;-65
2022/05/05 04:41:29;;;;;;;5.72;1.30;;;7.10;99.90;;;;;;4972758;28;20027;-65
2022/05/05 04:43:54;;;;;;;6.07;1.10;;;7.50;94.10;;;;;;4971350;28;20099;-65
2022/05/05 04:46:20;;;;;;;6.35;1.35;;;7.20;92.00;;;;;;4967166;28;20053;-66
2022/05/05 04:48:46;;;;;;;6.30;0.95;;;7.00;92.20;;;;;;4971186;28;20015;-64
2022/05/05 04:51:11;;;;;;;12.70;2.17;;;6.80;93.60;;;;;;4968295;28;20031;-66
2022/05/05 04:53:37;;;;;;;15.95;1.50;;;6.80;93.90;;;;;;4952467;28;20034;-66
2022/05/05 04:56:03;;;;;;;9.57;1.35;;;6.70;94.10;;;;;;4964576;28;20038;-64
2022/05/05 04:58:34;;;;;;;29.17;3.03;;;6.60;95.00;;;;;;4964410;28;20051;-66
2022/05/05 05:01:00;;;;;;;8.02;1.00;;;6.50;94.20;;;;;;4953432;28;20019;-66
2022/05/05 05:03:36;;;;;;;7.28;0.80;;;6.50;94.20;;;;;;4953864;28;20045;-66
2022/05/05 05:06:06;;;;;;;6.53;1.20;;;6.50;94.90;;;;;;4954271;28;20034;-66
2022/05/05 05:08:33;;;;;;;2.80;0.70;;;6.40;94.90;;;;;;4946907;28;20051;-66
2022/05/05 05:10:59;;;;;;;11.93;1.23;;;6.50;95.10;;;;;;4951000;28;20071;-67
2022/05/05 05:13:25;;;;;;;10.13;1.20;;;6.60;94.80;;;;;;4946914;28;20019;-66
2022/05/05 05:15:51;;;;;;;5.65;0.80;;;6.70;94.50;;;;;;4952876;28;20259;-67
2022/05/05 05:18:17;;;;;;;6.60;0.90;;;6.90;94.40;;;;;;4960743;28;20102;-67
2022/05/05 05:20:43;;;;;;;3.17;0.80;;;7.00;94.20;;;;;;4976427;28;20055;-67
2022/05/05 05:23:09;;;;;;;23.80;1.55;;;7.00;93.80;;;;;;4976247;28;20030;-67
2022/05/05 05:25:35;;;;;;;36.13;2.38;;;7.10;93.20;;;;;;4976429;28;20022;-67
2022/05/05 05:28:01;;;;;;;3.75;1.05;;;7.20;93.00;;;;;;4976013;28;20023;-67
2022/05/05 05:30:27;;;;;;;46.38;2.25;;;7.40;93.00;;;;;;4976149;28;20437;-66
2022/05/05 05:32:53;;;;;;;6.10;1.23;;;7.60;92.30;;;;;;4976100;28;20031;-66
2022/05/05 05:35:18;;;;;;;5.43;0.93;;;7.90;91.70;;;;;;4976045;28;20134;-64
2022/05/05 05:37:44;;;;;;;6.53;0.88;;;8.00;91.10;;;;;;4974995;28;20086;-64
2022/05/05 05:40:10;;;;;;;4.97;0.80;;;8.10;90.40;;;;;;4976202;28;20091;-63
2022/05/05 05:42:36;;;;;;;88.30;5.28;;;8.30;90.00;;;;;;4975922;28;20043;-64
2022/05/05 05:45:02;;;;;;;9.48;1.05;;;8.60;89.10;;;;;;4975953;28;20107;-64
2022/05/05 05:47:27;;;;;;;10.80;1.95;;;9.00;87.70;;;;;;4975866;28;20039;-66
2022/05/05 05:49:54;;;;;;;14.63;1.30;;;9.40;84.90;;;;;;4975824;28;20026;-66
2022/05/05 05:52:20;;;;;;;4.07;0.68;;;9.60;82.30;;;;;;4975643;28;20114;-65
2022/05/05 05:54:46;;;;;;;10.60;1.13;;;9.90;80.60;;;;;;4975697;28;20102;-66
2022/05/05 05:57:11;;;;;;;8.93;0.85;;;10.20;80.00;;;;;;4975563;28;20045;-66
2022/05/05 05:59:37;;;;;;;5.00;0.88;;;10.50;78.10;;;;;;4973131;28;20451;-64
2022/05/05 06:04:47;;;;;;;6.22;1.20;;;10.80;74.50;;;;;;4969035;28;20029;-64
2022/05/05 06:07:13;;;;;;;7.13;0.93;;;11.20;73.40;;;;;;4971809;28;20102;-64
2022/05/05 06:09:38;;;;;;;6.00;0.73;;;11.40;71.70;;;;;;4968776;28;20106;-64
2022/05/05 06:12:05;;;;;;;16.77;1.45;;;11.40;70.70;;;;;;4968929;28;20035;-64
2022/05/05 06:14:30;;;;;;;14.27;1.20;;;11.40;70.20;;;;;;4973876;28;20027;-66
2022/05/05 06:16:56;;;;;;;19.65;2.17;;;11.50;69.50;;;;;;4974112;28;20117;-65
2022/05/05 06:19:22;;;;;;;10.52;1.27;;;11.30;68.50;;;;;;4974321;28;20018;-66
2022/05/05 06:21:47;;;;;;;7.78;0.63;;;11.00;68.70;;;;;;4974035;28;20050;-66
2022/05/05 06:24:13;;;;;;;4.53;0.77;;;10.90;69.60;;;;;;4973895;28;20014;-67
2022/05/05 06:26:39;;;;;;;11.00;1.10;;;10.80;69.80;;;;;;4973869;28;20422;-66
2022/05/05 06:29:05;;;;;;;15.88;1.33;;;10.60;69.50;;;;;;4974474;28;20026;-65
2022/05/05 06:31:30;;;;;;;2.30;0.65;;;10.40;69.50;;;;;;4974971;28;20030;-65
2022/05/05 06:33:56;;;;;;;15.43;1.80;;;10.20;69.50;;;;;;4974872;28;20031;-66
2022/05/05 06:36:22;;;;;;;4.95;0.98;;;10.30;69.20;;;;;;4975046;28;20490;-65
2022/05/05 06:38:51;;;;;;;6.53;0.68;;;10.50;68.80;;;;;;4974757;28;20140;-65
2022/05/05 06:41:16;;;;;;;20.98;1.35;;;10.80;69.10;;;;;;4975017;28;20023;-65
2022/05/05 06:43:42;;;;;;;8.30;1.55;;;10.90;67.60;;;;;;4974910;28;20395;-68
2022/05/05 06:46:08;;;;;;;10.27;1.10;;;10.90;67.90;;;;;;4974705;28;20394;-66
2022/05/05 06:48:34;;;;;;;7.72;1.00;;;11.00;68.20;;;;;;4974439;28;20091;-66
2022/05/05 06:50:59;;;;;;;2.10;0.60;;;10.80;66.70;;;;;;4971438;28;20027;-65
2022/05/05 06:53:25;;;;;;;16.60;1.05;;;10.80;70.70;;;;;;4954891;29;20031;-65
2022/05/05 06:55:55;;;;;;;1.15;0.60;;;11.10;70.70;;;;;;4955086;29;20028;-66
2022/05/05 06:58:22;;;;;;;6.53;1.27;;;11.00;69.60;;;;;;4954929;29;20031;-65
2022/05/05 07:03:32;;;;;;;7.05;1.10;;;10.90;69.10;;;;;;4954416;29;20046;-65
2022/05/05 07:05:57;;;;;;;4.80;0.77;;;10.70;68.60;;;;;;4954701;29;20102;-67
2022/05/05 07:08:23;;;;;;;9.90;1.10;;;10.60;67.90;;;;;;4954770;29;20028;-67
2022/05/05 07:10:54;;;;;;;4.43;0.60;;;10.60;67.90;;;;;;4954562;29;20031;-68
2022/05/05 07:13:22;;;;;;;4.03;0.70;;;10.40;67.60;;;;;;4955079;29;20031;-68
2022/05/05 07:15:48;;;;;;;18.13;1.25;;;10.30;67.90;;;;;;4954886;29;20039;-68
2022/05/05 07:18:14;;;;;;;13.10;1.25;;;10.30;70.40;;;;;;4953528;29;20035;-69
2022/05/05 07:20:39;;;;;;;4.45;0.85;;;10.60;70.40;;;;;;4954472;29;20028;-67
2022/05/05 07:23:07;;;;;;;13.55;1.30;;;10.80;73.20;;;;;;4954653;29;20167;-64
2022/05/05 07:25:33;;;;;;;13.45;1.45;;;11.10;73.00;;;;;;4954566;29;20027;-65
2022/05/05 07:27:58;;;;;;;19.48;1.13;;;11.20;71.90;;;;;;4954927;29;20031;-65
2022/05/05 07:30:24;;;;;;;6.05;0.90;;;10.90;68.00;;;;;;4954715;29;20493;-66
2022/05/05 07:32:50;;;;;;;7.72;0.80;;;10.60;68.10;;;;;;4954665;29;20031;-65
2022/05/05 07:35:17;;;;;;;13.48;0.88;;;10.50;68.60;;;;;;4954862;29;20023;-65
2022/05/05 07:37:42;;;;;;;26.17;1.80;;;10.40;69.00;;;;;;4954558;28;20051;-66
2022/05/05 07:40:08;;;;;;;3.70;0.82;;;10.40;69.50;;;;;;4954170;28;20103;-65
2022/05/05 07:42:37;;;;;;;5.55;0.95;;;10.40;69.40;;;;;;4954672;29;20019;-66
2022/05/05 07:45:06;;;;;;;2.47;0.90;;;10.20;69.60;;;;;;4954560;29;20062;-65
2022/05/05 07:47:33;;;;;;;31.02;1.58;;;10.20;70.00;;;;;;4954422;29;20027;-65
2022/05/05 07:50:00;;;;;;;10.63;1.48;;;10.20;70.10;;;;;;4954452;29;20115;-65
2022/05/05 07:52:25;;;;;;;2.42;0.80;;;10.20;70.30;;;;;;4954413;29;20031;-65
2022/05/05 07:54:51;;;;;;;10.27;0.75;;;10.20;70.60;;;;;;4954364;29;20024;-65
2022/05/05 07:57:20;;;;;;;7.05;1.30;;;10.20;71.50;;;;;;4954342;29;20058;-65
2022/05/05 07:59:46;;;;;;;5.45;1.00;;;10.20;70.60;;;;;;4954241;29;20022;-66
2022/05/05 08:02:16;;;;;;;5.10;0.88;;;10.20;71.00;;;;;;4954395;29;20110;-65
2022/05/05 08:04:43;;;;;;;3.10;0.93;;;10.20;71.20;;;;;;4954234;29;20077;-65
2022/05/05 08:07:10;;;;;;;7.18;1.10;;;10.20;71.30;;;;;;4953996;29;20431;-65
2022/05/05 08:09:36;;;;;;;2.95;0.98;;;10.20;71.30;;;;;;4954094;29;20459;-65
2022/05/05 08:12:02;;;;;;;3.85;0.80;;;10.20;71.30;;;;;;4954128;29;20042;-65
2022/05/05 08:14:28;;;;;;;2.30;0.80;;;10.20;71.30;;;;;;4954272;29;20035;-65
2022/05/05 08:16:55;;;;;;;6.07;0.88;;;10.20;71.60;;;;;;4954020;29;20035;-65
2022/05/05 08:19:21;;;;;;;4.95;0.93;;;10.30;71.50;;;;;;4953943;29;20032;-65
2022/05/05 08:21:47;;;;;;;18.83;1.67;;;10.30;71.40;;;;;;4954055;29;20081;-65
2022/05/05 08:29:42;;;;;;;3.15;0.75;;;10.60;71.00;;;;;;4954173;29;20102;-65
2022/05/05 08:32:07;;;;;;;2.08;0.73;;;10.50;70.60;;;;;;4953816;29;20031;-65
2022/05/05 08:34:33;;;;;;;6.80;1.38;;;10.50;70.50;;;;;;4953754;29;20034;-65
2022/05/05 08:36:59;;;;;;;2.95;0.63;;;10.50;70.80;;;;;;4953847;28;20071;-65
2022/05/05 08:39:25;;;;;;;7.90;1.33;;;10.60;70.60;;;;;;4953570;28;20047;-65
2022/05/05 08:41:54;;;;;;;7.93;1.75;;;10.70;70.40;;;;;;4937076;29;20032;-65
2022/05/05 08:44:19;;;;;;;2.13;1.10;;;10.70;70.50;;;;;;4953639;29;20062;-65
2022/05/05 08:46:50;;;;;;;3.83;0.80;;;10.70;70.30;;;;;;4953800;29;20451;-65
2022/05/05 08:49:19;;;;;;;;;;;10.70;70.30;;;;;;4953994;29;20116;-65
2022/05/05 08:51:48;;;;;;;36.90;2.20;;;10.80;70.30;;;;;;4953774;28;19907;-65
2022/05/05 08:54:16;;;;;;;11.98;1.17;;;10.90;70.10;;;;;;4957274;29;20262;-65
2022/05/05 08:56:50;;;;;;;3.67;0.77;;;10.90;70.10;;;;;;4957497;29;20027;-65
2022/05/05 08:59:20;;;;;;;8.38;0.98;;;11.10;69.90;;;;;;4957806;29;20134;-65
2022/05/05 09:01:45;;;;;;;9.17;0.90;;;11.10;69.60;;;;;;4957405;29;20019;-65
2022/05/05 09:04:11;;;;;;;3.58;0.80;;;11.10;69.30;;;;;;4957627;29;20054;-65
2022/05/05 09:06:51;;;;;;;13.18;0.85;;;11.20;69.30;;;;;;4957494;29;20317;-65
2022/05/05 09:09:31;;;;;;;5.47;0.98;;;11.20;69.60;;;;;;4957131;29;20030;-65
2022/05/05 09:12:10;;;;;;;32.70;2.95;;;11.40;69.80;;;;;;4957472;29;20043;-65
2022/05/05 09:14:39;;;;;;;6.25;0.77;;;11.50;68.90;;;;;;4939875;29;20031;-65
2022/05/05 09:17:10;;;;;;;9.07;1.20;;;11.50;68.80;;;;;;4956972;29;20525;-65
2022/05/05 09:19:38;;;;;;;3.25;0.70;;;11.60;69.10;;;;;;4957191;29;20032;-65
2022/05/05 09:22:05;;;;;;;10.65;1.55;;;11.80;68.50;;;;;;4956889;29;20045;-65
2022/05/05 09:24:40;;;;;;;12.45;0.98;;;11.90;68.40;;;;;;4956819;29;20058;-65
2022/05/05 09:27:33;;;;;;;1.85;0.80;;;11.90;68.50;;;;;;4957127;29;20027;-65
2022/05/05 09:30:06;;;;;;;10.27;1.05;;;11.90;67.80;;;;;;4957070;29;20034;-65
2022/05/05 09:32:45;;;;;;;12.30;1.58;;;12.00;67.90;;;;;;4956991;29;20030;-65
2022/05/05 09:35:15;;;;;;;3.08;0.90;;;12.10;67.80;;;;;;4957092;29;20388;-65
2022/05/05 09:37:47;;;;;;;6.43;1.10;;;12.10;67.50;;;;;;4956713;28;20047;-65
2022/05/05 09:40:18;;;;;;;5.85;0.88;;;12.10;67.10;;;;;;4956816;29;20039;-65
2022/05/05 09:42:46;;;;;;;4.53;0.90;;;12.10;67.20;;;;;;4957062;29;20105;-65
2022/05/05 09:45:19;;;;;;;2.72;0.75;;;12.20;67.20;;;;;;4956503;29;20102;-65
2022/05/05 09:47:47;;;;;;;13.88;1.20;;;12.10;67.30;;;;;;4956620;29;20031;-65
2022/05/05 09:50:14;;;;;;;5.95;1.67;;;12.20;68.10;;;;;;4956668;29;20102;-65
2022/05/05 09:58:16;;;;;;;8.48;1.00;;;12.20;66.90;;;;;;4955874;29;20098;-66
2022/05/05 10:00:47;;;;;;;8.02;1.38;;;12.20;67.40;;;;;;4956482;29;20439;-66
2022/05/05 10:06:05;;;;;;;19.17;2.78;;;12.20;67.50;;;;;;4956207;29;20074;-66
2022/05/05 10:08:40;;;;;;;2.60;0.60;;;12.30;68.50;;;;;;4955564;29;20383;-66
2022/05/05 10:11:09;;;;;;;7.45;0.93;;;12.40;68.00;;;;;;4941645;29;20141;-67
2022/05/05 10:13:37;;;;;;;7.15;1.05;;;12.40;67.90;;;;;;4935741;29;20031;-66
2022/05/05 10:16:07;;;;;;;6.07;1.02;;;12.50;67.50;;;;;;4940094;29;20028;-66
2022/05/05 10:18:37;;;;;;;4.60;0.73;;;12.50;67.90;;;;;;4953638;29;20027;-68
2022/05/05 10:21:06;;;;;;;11.20;1.20;;;12.50;67.20;;;;;;4955425;29;20089;-67
2022/05/05 10:23:50;;;;;;;5.97;1.10;;;12.40;67.00;;;;;;4955152;29;20035;-67
2022/05/05 10:26:24;;;;;;;11.73;1.00;;;12.40;67.10;;;;;;4955383;29;20051;-68
2022/05/05 10:28:50;;;;;;;10.80;1.08;;;12.40;67.60;;;;;;4955404;29;20467;-68
2022/05/05 10:31:31;;;;;;;10.52;1.00;;;12.40;67.90;;;;;;4955827;29;20035;-67
2022/05/05 10:34:03;;;;;;;10.52;1.17;;;12.40;67.60;;;;;;4956138;29;20031;-67
2022/05/05 10:36:29;;;;;;;12.18;1.10;;;12.50;67.70;;;;;;4955526;28;20475;-67
2022/05/05 10:38:56;;;;;;;7.22;1.17;;;12.50;67.50;;;;;;4955465;28;20106;-68
2022/05/05 10:41:31;;;;;;;11.63;1.33;;;12.60;67.80;;;;;;4955494;29;20028;-67
2022/05/05 10:44:19;;;;;;;13.40;1.30;;;12.70;67.70;;;;;;4955484;29;20554;-67
2022/05/05 10:47:02;;;;;;;4.53;0.95;;;12.80;67.80;;;;;;4955991;29;20086;-67
2022/05/05 10:49:31;;;;;;;7.32;1.00;;;12.90;67.30;;;;;;4955439;29;20043;-67
2022/05/05 10:52:11;;;;;;;8.52;1.00;;;13.00;67.80;;;;;;4955483;29;20545;-67
2022/05/05 10:54:39;;;;;;;14.05;1.60;;;13.10;67.30;;;;;;4955404;29;20024;-68
2022/05/05 10:57:26;;;;;;;6.07;1.00;;;13.10;67.00;;;;;;4955566;29;20375;-67
2022/05/05 11:00:12;;;;;;;3.60;0.90;;;13.10;66.80;;;;;;4955580;29;20028;-67
2022/05/05 11:02:57;;;;;;;5.95;1.10;;;13.10;66.50;;;;;;4955225;29;20491;-67
2022/05/05 11:05:36;;;;;;;2.55;0.70;;;13.10;66.60;;;;;;4955441;29;20031;-67
2022/05/05 11:08:14;;;;;;;12.25;0.88;;;13.00;66.70;;;;;;4955368;29;20114;-67
2022/05/05 11:13:41;;;;;;;7.70;1.00;;;13.00;68.40;;;;;;4954475;29;20386;-65
2022/05/05 11:22:24;;;;;;;12.05;1.50;;;13.10;68.20;;;;;;4954934;29;20055;-68
2022/05/05 11:24:52;;;;;;;10.70;1.38;;;13.30;68.80;;;;;;4954861;29;20027;-68
2022/05/05 11:27:25;;;;;;;7.43;0.85;;;13.40;68.90;;;;;;4954612;29;20023;-69
2022/05/05 11:29:51;;;;;;;2.75;1.10;;;13.50;67.90;;;;;;4935061;29;20368;-69
2022/05/05 11:32:18;;;;;;;38.13;3.58;;;13.50;66.90;;;;;;4934013;29;20028;-72
2022/05/05 11:34:45;;;;;;;9.35;2.65;;;13.70;67.80;;;;;;4935288;29;20090;-74
2022/05/05 11:37:11;;;;;;;8.48;1.65;;;14.10;71.30;;;;;;4953568;29;20075;-66
2022/05/05 11:39:38;;;;;;;10.85;2.75;;;14.50;67.00;;;;;;4953967;29;20043;-66
2022/05/05 11:42:05;;;;;;;12.55;1.00;;;14.70;70.10;;;;;;4953784;29;20038;-66
2022/05/05 11:44:35;;;;;;;9.75;1.23;;;15.00;66.50;;;;;;4954246;28;20027;-66
2022/05/05 11:47:11;;;;;;;1.25;0.65;;;14.80;63.40;;;;;;4954533;28;20546;-66
2022/05/05 11:49:37;;;;;;;1.25;0.60;;;14.60;63.50;;;;;;4954166;28;20066;-66
2022/05/05 11:52:04;;;;;;;6.38;0.80;;;14.50;63.80;;;;;;4954725;28;20062;-66
2022/05/05 11:54:35;;;;;;;1.27;0.50;;;14.50;63.60;;;;;;4954013;28;20082;-66
2022/05/05 11:57:01;;;;;;;3.17;0.82;;;14.50;63.70;;;;;;4954294;28;20043;-66
2022/05/05 12:02:18;;;;;;;17.77;1.10;;;14.40;64.10;;;;;;4954570;29;20188;-66
2022/05/05 12:05:11;;;;;;;3.00;0.50;;;14.50;64.10;;;;;;4954407;28;20474;-66
2022/05/05 12:07:38;;;;;;;2.95;0.43;;;14.40;63.90;;;;;;4949940;28;20069;-66
2022/05/05 12:10:08;;;;;;;11.57;0.80;;;14.30;64.20;;;;;;4954448;28;20035;-65
2022/05/05 12:12:37;;;;;;;3.33;0.60;;;14.30;64.20;;;;;;4953858;28;20046;-65
2022/05/05 12:15:08;;;;;;;3.65;0.60;;;14.50;64.00;;;;;;4953966;28;20110;-65
2022/05/05 12:17:42;;;;;;;;;;;14.50;63.90;;;;;;4954178;28;20050;-65
2022/05/05 12:20:13;;;;;;;3.45;0.50;;;14.50;63.20;;;;;;4954062;28;20289;-65
2022/05/05 12:22:40;;;;;;;2.03;0.45;;;14.50;63.60;;;;;;4954232;28;20035;-65
2022/05/05 12:25:17;;;;;;;4.40;0.80;;;14.40;63.40;;;;;;4954302;28;20031;-65
2022/05/05 12:27:47;;;;;;;2.78;0.65;;;14.40;63.70;;;;;;4953970;28;20031;-65
2022/05/05 12:30:39;;;;;;;3.28;0.60;;;14.40;64.00;;;;;;4954221;28;20371;-65
2022/05/05 12:33:07;;;;;;;1.70;0.50;;;14.40;64.00;;;;;;4953947;28;20035;-65
2022/05/05 12:35:40;;;;;;;1.42;0.45;;;14.40;64.20;;;;;;4953757;28;20091;-65
2022/05/05 12:38:08;;;;;;;3.05;0.60;;;14.40;64.40;;;;;;4968138;28;20050;-66
2022/05/05 12:40:35;;;;;;;1.58;0.50;;;14.40;64.70;;;;;;4992598;28;20074;-65
2022/05/05 12:43:06;;;;;;;3.00;0.85;;;14.50;64.40;;;;;;4992734;28;20113;-65
2022/05/05 12:45:34;;;;;;;4.10;0.63;;;14.60;65.00;;;;;;4992211;28;20059;-66
2022/05/05 12:48:03;;;;;;;0.88;0.70;;;14.60;64.30;;;;;;4992308;28;20050;-65
2022/05/05 12:50:31;;;;;;;3.83;1.48;;;14.60;63.60;;;;;;4992177;28;20034;-65
2022/05/05 13:01:30;;;;;;;7.63;1.33;;;14.50;63.80;;;;;;4992362;28;20061;-64
2022/05/05 13:04:05;;;;;;;2.95;0.65;;;14.60;63.60;;;;;;4992478;28;20085;-65
2022/05/05 13:06:31;;;;;;;32.38;2.05;;;14.60;63.50;;;;;;4992178;28;20118;-65
2022/05/05 13:08:57;;;;;;;4.68;0.65;;;14.60;63.60;;;;;;4992501;28;20102;-64
2022/05/05 13:11:23;;;;;;;0.50;0.40;;;14.60;63.40;;;;;;4992202;28;20505;-64
2022/05/05 13:13:50;;;;;;;1.95;0.50;;;14.60;63.20;;;;;;4992379;28;20033;-64
2022/05/05 13:16:16;;;;;;;3.75;0.90;;;14.60;63.40;;;;;;4992028;28;20042;-64
2022/05/05 13:18:42;;;;;;;2.42;0.55;;;14.60;63.50;;;;;;4991991;28;20026;-65
2022/05/05 13:21:08;;;;;;;2.33;0.50;;;14.70;62.80;;;;;;4992480;28;20034;-64
2022/05/05 13:23:35;;;;;;;1.08;0.68;;;14.80;63.00;;;;;;4992378;28;20034;-64
2022/05/05 13:26:03;;;;;;;3.60;0.98;;;14.80;62.10;;;;;;4992124;28;20038;-65
2022/05/05 13:28:29;;;;;;;3.25;0.60;;;14.80;62.60;;;;;;4991974;28;20030;-64
2022/05/05 13:30:55;;;;;;;17.63;1.80;;;14.80;62.40;;;;;;4992075;28;20474;-64
2022/05/05 13:33:20;;;;;;;2.50;0.70;;;14.90;61.80;;;;;;4992146;28;20036;-65
2022/05/05 13:35:46;;;;;;;4.20;1.38;;;14.80;61.90;;;;;;4972487;28;20072;-65
2022/05/05 13:38:12;;;;;;;7.22;0.90;;;14.90;63.30;;;;;;4970563;28;20058;-65
2022/05/05 13:40:37;;;;;;;8.55;0.70;;;15.00;61.70;;;;;;4956658;29;20076;-65
2022/05/05 13:43:03;;;;;;;1.95;0.50;;;14.90;61.30;;;;;;4956728;29;20027;-64
2022/05/05 13:45:29;;;;;;;2.13;0.77;;;14.90;61.40;;;;;;4956798;29;20027;-65
2022/05/05 13:47:55;;;;;;;3.15;0.77;;;14.70;61.30;;;;;;4957001;29;20467;-65
2022/05/05 13:50:20;;;;;;;3.78;0.70;;;14.70;61.60;;;;;;4957081;29;20086;-64
2022/05/05 13:52:47;;;;;;;4.68;1.15;;;14.60;61.40;;;;;;4963052;28;20106;-65
2022/05/05 13:55:13;;;;;;;1.40;0.60;;;14.50;61.40;;;;;;4948260;29;20038;-65
2022/05/05 13:57:43;;;;;;;4.78;0.70;;;14.60;61.70;;;;;;4945370;29;20123;-65
2022/05/05 14:00:10;;;;;;;1.02;0.50;;;14.50;61.30;;;;;;4947803;29;20020;-66
2022/05/05 14:02:36;;;;;;;8.75;1.05;;;14.40;62.50;;;;;;4946879;29;20044;-66
2022/05/05 14:05:02;;;;;;;1.60;0.40;;;14.30;62.10;;;;;;4945372;29;20074;-66
2022/05/05 14:12:56;;;;;;;7.65;1.00;;;14.10;63.80;;;;;;4947547;29;20042;-66
2022/05/05 14:15:22;;;;;;;5.22;0.47;;;14.10;64.20;;;;;;4947540;29;20460;-66
2022/05/05 14:17:48;;;;;;;6.38;0.70;;;14.00;64.30;;;;;;4945946;29;20036;-66
2022/05/05 14:20:13;;;;;;;2.25;0.60;;;14.00;64.50;;;;;;4946231;29;20030;-65
2022/05/05 14:22:42;;;;;;;1.52;0.47;;;14.00;64.60;;;;;;4947461;29;20031;-65
2022/05/05 14:25:10;;;;;;;7.82;0.70;;;13.90;65.10;;;;;;4946840;29;20019;-66
2022/05/05 14:27:37;;;;;;;4.18;0.50;;;13.90;65.50;;;;;;4950787;29;20482;-66
2022/05/05 14:30:07;;;;;;;6.80;0.85;;;13.80;65.90;;;;;;4944740;29;20401;-66
2022/05/05 14:32:34;;;;;;;4.43;0.52;;;13.70;66.30;;;;;;4951993;29;20031;-66
2022/05/05 14:35:00;;;;;;;2.83;0.60;;;13.70;66.70;;;;;;4952961;29;20023;-66
2022/05/05 14:37:26;;;;;;;1.67;0.55;;;13.60;66.70;;;;;;4938846;28;20114;-66
2022/05/05 14:39:52;;;;;;;0.70;0.60;;;13.60;67.20;;;;;;4940812;29;20102;-66
2022/05/05 14:42:18;;;;;;;3.65;0.70;;;13.60;67.30;;;;;;4947426;29;20053;-66
2022/05/05 14:44:43;;;;;;;3.03;0.60;;;13.60;67.20;;;;;;4946935;29;20167;-66
2022/05/05 14:47:10;;;;;;;3.00;0.32;;;13.60;66.80;;;;;;4944335;29;20023;-66
2022/05/05 14:49:39;;;;;;;4.28;0.40;;;13.60;66.80;;;;;;4946691;28;20031;-66